Time;durP1;ratioP1;P1;durP2;ratioP2;P2;SDS_P1;SDS_P2;PMS_P1;PMS_P2;Temp;Humidity;BMP_temperature;BMP_pressure;BME280_temperature;BME280_humidity;BME280_pressure;Samples;Min_cycle;Max_cycle;Signal;HPM_P1;HPM_P2
2024/01/30 00:01:38;;;;;;;17.30;10.70;;;;;;;-1.98;74.42;102138.28;105927;1252;59759;-74
2024/01/30 00:04:04;;;;;;;15.30;9.70;;;;;;;-1.90;74.11;102134.11;105806;1254;70979;-74
2024/01/30 00:06:31;;;;;;;16.10;10.80;;;;;;;-1.92;74.08;102130.16;105685;1254;70188;-74
2024/01/30 00:08:58;;;;;;;15.90;11.40;;;;;;;-1.94;74.08;102134.55;105737;1256;71450;-73
2024/01/30 00:11:28;;;;;;;18.10;11.70;;;;;;;-1.96;74.02;102130.06;105776;1254;59742;-74
2024/01/30 00:13:56;;;;;;;16.60;11.00;;;;;;;-2.01;74.06;102125.48;105888;1254;59771;-74
2024/01/30 00:16:26;;;;;;;17.10;11.60;;;;;;;-2.05;74.31;102132.84;105706;1259;71635;-75
2024/01/30 00:18:53;;;;;;;18.30;11.10;;;;;;;-1.99;74.31;102135.85;105786;1254;70696;-74
2024/01/30 00:21:20;;;;;;;17.00;11.30;;;;;;;-1.93;74.11;102134.02;105807;1254;72689;-74
2024/01/30 00:23:47;;;;;;;19.20;11.90;;;;;;;-1.96;74.17;102130.09;105909;1257;59750;-73
2024/01/30 00:26:14;;;;;;;17.80;11.60;;;;;;;-2.01;74.16;102128.60;105727;1254;60244;-74
2024/01/30 00:28:42;;;;;;;17.60;11.60;;;;;;;-2.07;74.54;102130.80;106186;1254;72945;-74
2024/01/30 00:31:17;;;;;;;17.00;11.20;;;;;;;-2.10;74.70;102118.70;106231;1256;70285;-74
2024/01/30 00:33:44;;;;;;;16.30;11.60;;;;;;;-2.03;74.77;102116.66;106373;1254;72541;-75
2024/01/30 00:36:11;;;;;;;18.60;12.00;;;;;;;-2.04;74.83;102116.33;106596;1256;59654;-74
2024/01/30 00:38:38;;;;;;;17.90;11.70;;;;;;;-2.10;75.06;102112.11;106105;1254;60405;-75
2024/01/30 00:41:04;;;;;;;18.10;11.90;;;;;;;-2.17;75.12;102109.80;107035;1256;59758;-75
2024/01/30 00:43:31;;;;;;;19.20;12.50;;;;;;;-2.22;75.44;102107.99;107455;1256;70270;-76
2024/01/30 00:45:59;;;;;;;16.80;11.70;;;;;;;-2.19;75.50;102110.36;107384;1254;71392;-75
2024/01/30 00:48:26;;;;;;;18.10;11.00;;;;;;;-2.15;75.43;102106.81;106776;1254;59656;-76
2024/01/30 00:50:52;;;;;;;17.00;11.40;;;;;;;-2.20;75.51;102100.30;105988;1254;60121;-75
2024/01/30 00:53:19;;;;;;;17.60;11.40;;;;;;;-2.27;75.60;102098.19;105905;1257;72918;-74
2024/01/30 00:55:46;;;;;;;18.40;11.30;;;;;;;-2.32;75.66;102090.47;105936;1257;59756;-75
2024/01/30 00:58:12;;;;;;;16.70;11.40;;;;;;;-2.30;75.71;102097.02;105955;1256;72477;-74
2024/01/30 01:00:39;;;;;;;18.30;10.70;;;;;;;-2.29;75.79;102091.10;105813;1254;59765;-74
2024/01/30 01:03:06;;;;;;;17.50;11.40;;;;;;;-2.36;76.12;102084.11;105880;1253;60017;-73
2024/01/30 01:05:32;;;;;;;17.50;11.50;;;;;;;-2.46;76.40;102076.83;105904;1257;71715;-74
2024/01/30 01:07:59;;;;;;;16.60;10.50;;;;;;;-2.50;76.72;102079.84;105911;1253;70297;-75
2024/01/30 01:10:27;;;;;;;17.30;11.90;;;;;;;-2.45;76.57;102072.30;105970;1256;72332;-74
2024/01/30 01:12:54;;;;;;;17.80;10.60;;;;;;;-2.47;76.39;102068.70;105898;1256;59665;-73
2024/01/30 01:15:20;;;;;;;20.80;12.10;;;;;;;-2.53;76.41;102063.25;105917;1254;60299;-74
2024/01/30 01:17:47;;;;;;;20.10;11.30;;;;;;;-2.60;76.62;102063.02;105981;1254;72928;-74
2024/01/30 01:20:14;;;;;;;17.70;11.70;;;;;;;-2.61;76.83;102062.17;105801;1254;59669;-74
2024/01/30 01:22:41;;;;;;;22.90;13.50;;;;;;;-2.55;76.57;102051.81;105750;1259;72719;-74
2024/01/30 01:25:08;;;;;;;21.40;12.70;;;;;;;-2.56;76.60;102045.95;105961;1254;59646;-75
2024/01/30 01:27:40;;;;;;;19.10;12.50;;;;;;;-2.63;76.64;102046.58;105921;1254;60171;-75
2024/01/30 01:30:09;;;;;;;17.40;11.30;;;;;;;-2.69;76.68;102043.05;105896;1253;72845;-74
2024/01/30 01:32:38;;;;;;;19.10;12.20;;;;;;;-2.66;76.56;102036.77;108707;1253;69110;-75
2024/01/30 01:35:06;;;;;;;18.80;11.50;;;;;;;-2.59;76.40;102038.02;109139;1253;71462;-74
2024/01/30 01:37:33;;;;;;;20.20;11.80;;;;;;;-2.61;76.39;102026.96;106434;1256;59669;-74
2024/01/30 01:40:00;;;;;;;17.20;11.80;;;;;;;-2.67;76.36;102023.23;106061;1254;60184;-73
2024/01/30 01:42:27;;;;;;;16.20;10.90;;;;;;;-2.70;76.00;102019.48;106976;1256;73388;-74
2024/01/30 01:44:53;;;;;;;17.00;10.90;;;;;;;-2.63;75.77;102013.28;108690;1254;71261;-74
2024/01/30 01:47:20;;;;;;;17.50;10.40;;;;;;;-2.60;75.83;102004.02;109044;1254;71354;-75
2024/01/30 01:49:47;;;;;;;17.30;11.80;;;;;;;-2.64;75.77;102001.66;106176;1253;61082;-74
2024/01/30 01:52:14;;;;;;;16.90;11.10;;;;;;;-2.68;75.90;102000.89;106014;1254;60127;-73
2024/01/30 01:54:41;;;;;;;21.20;11.90;;;;;;;-2.71;75.99;101997.30;105895;1253;73232;-74
2024/01/30 01:57:07;;;;;;;16.20;10.80;;;;;;;-2.65;75.78;101997.52;105865;1254;69232;-74
2024/01/30 01:59:34;;;;;;;31.00;18.30;;;;;;;-2.64;75.58;101993.53;105950;1254;72594;-75
2024/01/30 02:02:01;;;;;;;17.60;11.90;;;;;;;-2.69;75.68;101994.50;105725;1257;59726;-75
2024/01/30 02:04:28;;;;;;;19.50;12.80;;;;;;;-2.74;75.92;101990.94;105733;1254;60528;-75
2024/01/30 02:06:55;;;;;;;18.10;12.20;;;;;;;-2.74;75.88;101992.14;105711;1257;73143;-75
2024/01/30 02:09:22;;;;;;;20.80;12.00;;;;;;;-2.65;75.77;101991.80;105826;1256;70342;-74
2024/01/30 02:11:48;;;;;;;16.90;11.60;;;;;;;-2.65;75.75;101985.37;105869;1256;72668;-75
2024/01/30 02:14:15;;;;;;;18.80;12.10;;;;;;;-2.72;75.91;101991.58;105891;1253;60445;-76
2024/01/30 02:16:42;;;;;;;15.80;10.40;;;;;;;-2.77;75.98;101985.26;105837;1254;60421;-75
2024/01/30 02:19:09;;;;;;;15.20;10.20;;;;;;;-2.72;76.05;101990.55;105902;1254;73841;-74
2024/01/30 02:21:35;;;;;;;27.30;15.20;;;;;;;-2.70;75.80;101991.70;105760;1254;70335;-74
2024/01/30 02:24:02;;;;;;;16.40;10.50;;;;;;;-2.74;75.95;101996.14;105942;1254;73548;-74
2024/01/30 02:26:29;;;;;;;14.20;9.50;;;;;;;-2.81;75.98;101991.73;105794;1254;60442;-75
2024/01/30 02:28:56;;;;;;;16.90;11.40;;;;;;;-2.80;76.13;101989.64;105938;1254;60501;-74
2024/01/30 02:31:24;;;;;;;19.00;12.10;;;;;;;-2.76;76.03;101984.37;106065;1254;60334;-74
2024/01/30 02:33:50;;;;;;;14.30;9.70;;;;;;;-2.81;76.05;101982.73;105768;1253;70257;-74
2024/01/30 02:36:17;;;;;;;18.30;10.60;;;;;;;-2.89;76.39;101988.93;105814;1254;72685;-73
2024/01/30 02:38:46;;;;;;;14.90;10.10;;;;;;;-2.91;76.43;101985.52;106002;1253;61007;-74
2024/01/30 02:41:12;;;;;;;14.60;9.90;;;;;;;-2.84;76.43;101982.44;106282;1256;60463;-75
2024/01/30 02:43:39;;;;;;;16.10;10.30;;;;;;;-2.85;76.29;101980.71;108448;1254;73588;-74
2024/01/30 02:46:06;;;;;;;16.30;10.60;;;;;;;-2.88;76.55;101987.54;108563;1254;68819;-73
2024/01/30 02:48:33;;;;;;;14.90;10.50;;;;;;;-2.93;76.61;101988.31;107060;1254;71062;-73
2024/01/30 02:51:00;;;;;;;12.70;8.90;;;;;;;-2.95;76.68;101985.92;106228;1253;60930;-74
2024/01/30 02:53:26;;;;;;;14.00;9.90;;;;;;;-2.87;76.75;101986.30;105971;1253;60550;-74
2024/01/30 02:55:53;;;;;;;14.90;9.80;;;;;;;-2.87;76.64;101982.84;106010;1253;60438;-73
2024/01/30 02:58:20;;;;;;;17.80;11.60;;;;;;;-2.93;76.81;101988.15;105893;1254;70205;-74
2024/01/30 03:00:46;;;;;;;18.70;12.50;;;;;;;-3.00;77.08;101985.66;105502;1257;72979;-72
2024/01/30 03:03:13;;;;;;;18.40;10.80;;;;;;;-3.04;77.40;101986.59;105534;1254;61043;-73
2024/01/30 03:05:40;;;;;;;15.40;10.30;;;;;;;-3.02;77.55;101981.88;105511;1257;60806;-73
2024/01/30 03:08:07;;;;;;;16.40;11.10;;;;;;;-2.99;77.59;101980.09;105703;1256;74253;-73
2024/01/30 03:10:34;;;;;;;17.80;11.80;;;;;;;-3.06;77.89;101985.77;105885;1254;70305;-73
2024/01/30 03:13:01;;;;;;;18.40;10.10;;;;;;;-3.13;78.06;101981.02;105574;1254;71754;-72
2024/01/30 03:15:28;;;;;;;13.10;10.10;;;;;;;-3.08;78.05;101972.10;105619;1254;61055;-73
2024/01/30 03:17:55;;;;;;;15.50;10.90;;;;;;;-3.08;78.12;101976.26;106037;1254;60514;-74
2024/01/30 03:20:21;;;;;;;17.00;11.20;;;;;;;-3.15;78.43;101981.39;105791;1256;73692;-76
2024/01/30 03:22:48;;;;;;;16.70;11.00;;;;;;;-3.23;78.65;101983.10;106001;1254;70231;-74
2024/01/30 03:25:15;;;;;;;19.00;12.60;;;;;;;-3.28;78.95;101981.45;106005;1254;71778;-74
2024/01/30 03:27:42;;;;;;;17.60;11.60;;;;;;;-3.22;78.98;101976.82;106570;1254;61228;-72
2024/01/30 03:30:09;;;;;;;13.70;9.70;;;;;;;-3.14;78.67;101980.86;106802;1254;60844;-73
2024/01/30 03:32:36;;;;;;;16.00;11.40;;;;;;;-3.16;78.85;101982.11;106191;1254;73751;-73
2024/01/30 03:35:03;;;;;;;20.10;13.10;;;;;;;-3.22;79.10;101977.35;106025;1254;70268;-73
2024/01/30 03:37:31;;;;;;;18.20;12.50;;;;;;;-3.25;79.37;101975.86;106006;1254;72674;-74
2024/01/30 03:39:57;;;;;;;18.40;12.10;;;;;;;-3.26;79.56;101972.22;105880;1254;61021;-73
2024/01/30 03:42:24;;;;;;;18.50;13.50;;;;;;;-3.17;79.31;101964.79;107343;1252;60433;-74
2024/01/30 03:44:54;;;;;;;19.70;14.30;;;;;;;-3.15;79.40;101964.58;108666;1251;73729;-74
2024/01/30 03:47:21;;;;;;;17.40;13.00;;;;;;;-3.21;79.42;101969.02;107711;1254;70373;-74
2024/01/30 03:49:48;;;;;;;16.80;12.10;;;;;;;-3.24;79.62;101968.23;106023;1255;72657;-73
2024/01/30 03:52:14;;;;;;;19.20;12.60;;;;;;;-3.19;79.54;101967.25;105737;1254;61175;-72
2024/01/30 03:54:41;;;;;;;16.90;12.80;;;;;;;-3.14;79.38;101966.31;105586;1254;60553;-72
2024/01/30 03:57:08;;;;;;;18.20;12.50;;;;;;;-3.19;79.46;101968.30;105666;1256;74461;-73
2024/01/30 03:59:35;;;;;;;17.60;12.60;;;;;;;-3.25;79.60;101963.73;106184;1256;70501;-74
2024/01/30 04:02:01;;;;;;;17.70;11.50;;;;;;;-3.29;79.83;101961.02;105877;1254;71437;-74
2024/01/30 04:04:29;;;;;;;16.10;11.30;;;;;;;-3.23;79.81;101958.83;106197;1256;61300;-74
2024/01/30 04:06:56;;;;;;;18.10;12.10;;;;;;;-3.19;79.66;101958.59;106129;1254;60479;-73
2024/01/30 04:09:22;;;;;;;18.60;13.00;;;;;;;-3.27;79.93;101963.58;106201;1254;73867;-71
2024/01/30 04:11:49;;;;;;;18.00;11.40;;;;;;;-3.35;80.08;101962.31;106238;1254;70186;-74
2024/01/30 04:14:16;;;;;;;17.60;11.60;;;;;;;-3.35;80.37;101960.06;106284;1256;72511;-74
2024/01/30 04:16:42;;;;;;;19.10;13.00;;;;;;;-3.26;80.14;101954.02;106141;1257;60316;-74
2024/01/30 04:19:09;;;;;;;19.40;12.70;;;;;;;-3.28;80.22;101956.31;106249;1254;60761;-73
2024/01/30 04:21:36;;;;;;;35.80;20.10;;;;;;;-3.35;80.35;101954.01;105956;1259;74456;-72
2024/01/30 04:24:03;;;;;;;18.30;11.90;;;;;;;-3.41;80.55;101952.52;106137;1254;70354;-73
2024/01/30 04:26:29;;;;;;;20.30;13.90;;;;;;;-3.37;80.57;101949.70;105931;1256;71574;-73
2024/01/30 04:28:56;;;;;;;19.70;13.50;;;;;;;-3.27;80.38;101949.56;105824;1254;60595;-73
2024/01/30 04:31:22;;;;;;;23.30;15.00;;;;;;;-3.31;80.17;101945.10;105605;1252;60443;-73
2024/01/30 04:33:49;;;;;;;20.20;13.70;;;;;;;-3.38;80.58;101949.20;105734;1256;74188;-72
2024/01/30 04:36:16;;;;;;;21.90;14.60;;;;;;;-3.42;80.55;101939.73;105905;1251;70946;-74
2024/01/30 04:38:43;;;;;;;25.80;17.40;;;;;;;-3.31;80.50;101936.45;106575;1256;73255;-73
2024/01/30 04:41:10;;;;;;;21.50;14.70;;;;;;;-3.30;80.36;101940.92;107480;1254;60398;-71
2024/01/30 04:43:36;;;;;;;22.00;15.60;;;;;;;-3.35;80.70;101947.77;109059;1254;60760;-75
2024/01/30 04:46:04;;;;;;;21.40;14.60;;;;;;;-3.38;80.64;101945.03;108215;1252;72336;-73
2024/01/30 04:48:31;;;;;;;17.80;12.20;;;;;;;-3.40;80.60;101947.33;107121;1254;70172;-75
2024/01/30 04:50:58;;;;;;;18.70;12.80;;;;;;;-3.30;80.36;101943.01;107009;1254;72763;-73
2024/01/30 04:53:24;;;;;;;20.20;12.00;;;;;;;-3.26;80.36;101944.31;106147;1252;60437;-75
2024/01/30 04:55:51;;;;;;;18.10;12.70;;;;;;;-3.31;80.49;101940.24;105859;1255;60409;-74
2024/01/30 04:58:18;;;;;;;19.10;13.60;;;;;;;-3.37;80.70;101942.94;106072;1256;73822;-73
2024/01/30 05:00:46;;;;;;;17.40;12.20;;;;;;;-3.42;80.63;101939.55;105951;1254;70208;-74
2024/01/30 05:03:13;;;;;;;17.50;12.60;;;;;;;-3.35;80.75;101949.15;105909;1254;71193;-74
2024/01/30 05:05:40;;;;;;;16.70;12.20;;;;;;;-3.34;80.56;101947.58;105892;1253;60543;-74
2024/01/30 05:08:06;;;;;;;21.10;14.70;;;;;;;-3.41;80.85;101946.30;105742;1258;60479;-73
2024/01/30 05:10:33;;;;;;;33.30;23.30;;;;;;;-3.48;81.08;101944.14;105902;1256;74251;-74
2024/01/30 05:12:59;;;;;;;26.80;18.80;;;;;;;-3.44;81.09;101938.55;105894;1256;68808;-74
2024/01/30 05:15:26;;;;;;;25.60;20.40;;;;;;;-3.43;81.16;101930.55;105883;1256;71873;-74
2024/01/30 05:17:53;;;;;;;34.90;29.50;;;;;;;-3.47;81.35;101932.02;105829;1254;60454;-74
2024/01/30 05:20:20;;;;;;;39.60;31.10;;;;;;;-3.53;81.52;101928.65;105972;1256;60331;-73
2024/01/30 05:22:46;;;;;;;28.00;21.20;;;;;;;-3.56;81.68;101935.10;105961;1254;74145;-73
2024/01/30 05:25:13;;;;;;;24.40;18.70;;;;;;;-3.48;81.74;101936.52;106002;1254;60447;-75
2024/01/30 05:27:40;;;;;;;27.50;19.80;;;;;;;-3.47;81.58;101940.14;105879;1256;72422;-74
2024/01/30 05:30:07;;;;;;;32.10;22.40;;;;;;;-3.53;81.78;101938.01;105841;1253;60530;-75
2024/01/30 05:32:34;;;;;;;39.70;26.30;;;;;;;-3.59;81.83;101940.36;106053;1256;60463;-75
2024/01/30 05:35:01;;;;;;;33.50;23.40;;;;;;;-3.63;82.08;101935.39;105999;1254;73708;-75
2024/01/30 05:37:28;;;;;;;24.90;18.20;;;;;;;-3.56;82.09;101938.39;106207;1254;70306;-74
2024/01/30 05:39:54;;;;;;;26.30;19.90;;;;;;;-3.48;81.89;101941.05;106585;1256;60439;-75
2024/01/30 05:42:21;;;;;;;31.40;23.20;;;;;;;-3.51;82.07;101942.98;108067;1252;60216;-73
2024/01/30 05:44:48;;;;;;;31.60;22.30;;;;;;;-3.55;82.32;101945.30;108377;1254;60332;-75
2024/01/30 05:47:15;;;;;;;27.80;19.50;;;;;;;-3.56;82.45;101938.73;107344;1255;72239;-74
2024/01/30 05:49:42;;;;;;;27.40;19.10;;;;;;;-3.46;82.29;101938.94;106215;1253;70188;-74
2024/01/30 05:52:09;;;;;;;33.90;25.20;;;;;;;-3.44;82.31;101940.80;108800;1252;60277;-73
2024/01/30 05:54:36;;;;;;;35.30;25.10;;;;;;;-3.47;82.70;101941.20;109337;1251;58133;-76
2024/01/30 05:57:03;;;;;;;31.00;23.80;;;;;;;-3.48;82.67;101941.03;106451;1256;61524;-74
2024/01/30 05:59:30;;;;;;;26.50;19.80;;;;;;;-3.38;82.55;101943.31;105755;1254;73540;-75
2024/01/30 06:01:56;;;;;;;33.20;25.10;;;;;;;-3.35;82.25;101944.83;106052;1254;70228;-76
2024/01/30 06:04:23;;;;;;;37.30;26.20;;;;;;;-3.39;82.55;101946.95;106053;1254;72664;-75
2024/01/30 06:06:50;;;;;;;34.00;23.20;;;;;;;-3.41;82.63;101948.38;105842;1254;60604;-75
2024/01/30 06:09:17;;;;;;;32.50;21.90;;;;;;;-3.37;82.68;101944.31;105864;1256;60445;-75
2024/01/30 06:11:43;;;;;;;30.70;22.00;;;;;;;-3.25;82.45;101939.81;105943;1256;73780;-76
2024/01/30 06:14:10;;;;;;;39.20;27.00;;;;;;;-3.24;82.31;101936.84;105995;1257;60577;-75
2024/01/30 06:16:36;;;;;;;31.50;20.20;;;;;;;-3.26;82.41;101936.19;105958;1254;72668;-75
2024/01/30 06:19:03;;;;;;;24.70;16.10;;;;;;;-3.28;82.45;101939.34;105915;1253;60748;-76
2024/01/30 06:21:31;;;;;;;24.40;15.30;;;;;;;-3.26;82.60;101941.04;105836;1254;60453;-77
2024/01/30 06:23:58;;;;;;;24.00;16.30;;;;;;;-3.12;82.35;101939.75;106112;1256;73742;-76
2024/01/30 06:26:25;;;;;;;22.80;16.20;;;;;;;-3.07;82.08;101941.91;106058;1254;70018;-76
2024/01/30 06:28:51;;;;;;;25.10;17.30;;;;;;;-3.10;82.14;101938.66;105941;1251;60472;-75
2024/01/30 06:31:18;;;;;;;21.40;14.30;;;;;;;-3.11;82.20;101933.67;105931;1256;60528;-78
2024/01/30 06:33:49;;;;;;;21.40;13.40;;;;;;;-3.06;82.10;101928.04;106049;1256;60353;-77
2024/01/30 06:36:16;;;;;;;20.80;14.10;;;;;;;-2.93;81.93;101927.78;106252;1256;74007;-76
2024/01/30 06:38:43;;;;;;;23.10;16.40;;;;;;;-2.91;81.77;101931.40;107174;1254;69992;-77
2024/01/30 06:41:10;;;;;;;23.50;15.30;;;;;;;-2.91;81.73;101931.23;107535;1253;71391;-76
2024/01/30 06:43:37;;;;;;;22.30;15.40;;;;;;;-2.90;81.64;101931.04;108969;1253;60243;-74
2024/01/30 06:46:03;;;;;;;23.30;16.00;;;;;;;-2.79;81.46;101929.79;108376;1251;60538;-75
2024/01/30 06:48:30;;;;;;;22.60;15.10;;;;;;;-2.65;81.01;101931.77;106110;1256;74423;-77
2024/01/30 06:50:57;;;;;;;22.80;14.80;;;;;;;-2.65;80.43;101930.05;106283;1254;70301;-77
2024/01/30 06:53:26;;;;;;;20.60;14.30;;;;;;;-2.67;80.42;101927.15;106001;1253;72739;-77
2024/01/30 06:55:53;;;;;;;22.30;14.50;;;;;;;-2.66;80.38;101928.86;105991;1254;61080;-78
2024/01/30 06:58:19;;;;;;;19.60;13.50;;;;;;;-2.54;79.94;101925.48;106135;1253;60424;-75
2024/01/30 07:00:46;;;;;;;20.40;13.90;;;;;;;-2.48;79.73;101921.38;105855;1254;72800;-76
2024/01/30 07:03:13;;;;;;;22.90;14.20;;;;;;;-2.53;79.10;101926.34;106072;1251;70226;-76
2024/01/30 07:05:40;;;;;;;21.50;13.80;;;;;;;-2.57;78.98;101928.33;105991;1254;73087;-77
2024/01/30 07:08:07;;;;;;;20.70;13.30;;;;;;;-2.48;78.96;101923.48;105987;1254;60883;-76
2024/01/30 07:10:33;;;;;;;19.30;13.20;;;;;;;-2.40;78.76;101921.02;105906;1254;60549;-77
2024/01/30 07:13:01;;;;;;;21.40;14.40;;;;;;;-2.39;78.47;101919.80;105881;1256;60370;-75
2024/01/30 07:15:28;;;;;;;23.00;15.50;;;;;;;-2.41;78.40;101925.05;106027;1254;70099;-75
2024/01/30 07:17:55;;;;;;;22.00;15.40;;;;;;;-2.41;78.49;101923.31;106064;1254;72478;-76
2024/01/30 07:20:22;;;;;;;23.70;15.20;;;;;;;-2.31;78.11;101925.20;106004;1254;61065;-76
2024/01/30 07:22:49;;;;;;;23.30;14.40;;;;;;;-2.23;77.73;101925.89;106051;1254;60520;-76
2024/01/30 07:25:17;;;;;;;21.70;15.10;;;;;;;-2.25;77.61;101922.11;106041;1256;73928;-75
2024/01/30 07:27:44;;;;;;;22.50;14.20;;;;;;;-2.28;77.62;101918.02;105993;1254;70673;-75
2024/01/30 07:30:10;;;;;;;23.20;13.70;;;;;;;-2.28;77.66;101917.48;105897;1254;72607;-77
2024/01/30 07:32:37;;;;;;;23.90;15.10;;;;;;;-2.17;77.48;101913.95;105953;1255;60961;-76
2024/01/30 07:35:04;;;;;;;19.30;13.30;;;;;;;-2.11;77.30;101919.05;106496;1254;60370;-75
2024/01/30 07:37:36;;;;;;;20.70;12.80;;;;;;;-2.10;77.51;101916.95;108014;1254;72470;-75
2024/01/30 07:40:03;;;;;;;20.00;13.20;;;;;;;-2.08;77.20;101920.71;106738;1254;68726;-74
2024/01/30 07:42:31;;;;;;;22.10;14.50;;;;;;;-2.07;76.87;101918.41;106580;1254;72480;-74
2024/01/30 07:44:58;;;;;;;20.50;13.60;;;;;;;-1.94;76.92;101915.71;106596;1257;61241;-73
2024/01/30 07:47:25;;;;;;;20.00;13.40;;;;;;;-1.86;76.68;101920.73;106301;1254;60351;-74
2024/01/30 07:49:51;;;;;;;17.20;12.00;;;;;;;-1.83;76.53;101920.31;106125;1254;72749;-74
2024/01/30 07:52:18;;;;;;;19.90;14.30;;;;;;;-1.80;76.46;101916.09;105961;1252;69044;-73
2024/01/30 07:54:47;;;;;;;18.80;12.60;;;;;;;-1.75;76.51;101915.11;105819;1256;72510;-74
2024/01/30 07:57:14;;;;;;;17.40;12.40;;;;;;;-1.65;76.22;101914.17;105900;1257;60865;-74
2024/01/30 07:59:44;;;;;;;19.40;13.90;;;;;;;-1.47;75.68;101913.38;105783;1254;61371;-74
2024/01/30 08:02:14;;;;;;;19.60;13.40;;;;;;;-1.40;75.41;101909.58;106049;1254;71542;-75
2024/01/30 08:04:41;;;;;;;15.80;12.30;;;;;;;-1.37;75.21;101906.19;105950;1257;70524;-74
2024/01/30 08:07:08;;;;;;;20.40;13.00;;;;;;;-1.32;74.94;101902.77;105855;1254;71495;-73
2024/01/30 08:09:35;;;;;;;19.70;12.30;;;;;;;-1.27;75.01;101907.17;106014;1253;60522;-74
2024/01/30 08:12:02;;;;;;;18.60;11.90;;;;;;;-1.20;74.79;101898.27;106090;1256;60539;-74
2024/01/30 08:14:28;;;;;;;16.70;11.90;;;;;;;-1.07;74.53;101898.96;105939;1256;73756;-74
2024/01/30 08:16:55;;;;;;;17.90;12.20;;;;;;;-0.89;73.80;101892.76;105929;1256;60495;-74
2024/01/30 08:19:21;;;;;;;16.80;11.60;;;;;;;-0.80;73.82;101891.66;105842;1254;71338;-73
2024/01/30 08:21:48;;;;;;;18.80;12.10;;;;;;;-0.74;73.49;101893.74;105966;1257;60533;-74
2024/01/30 08:24:15;;;;;;;16.70;11.90;;;;;;;-0.70;72.95;101892.40;105969;1256;60380;-73
2024/01/30 08:26:42;;;;;;;18.80;13.80;;;;;;;-0.66;72.62;101897.35;106073;1256;73961;-74
2024/01/30 08:29:08;;;;;;;19.20;13.40;;;;;;;-0.61;72.65;101888.51;106096;1254;70094;-74
2024/01/30 08:31:35;;;;;;;19.10;12.20;;;;;;;-0.54;72.93;101882.39;105922;1256;72548;-74
2024/01/30 08:34:02;;;;;;;19.00;12.40;;;;;;;-0.41;72.75;101886.70;105991;1256;60543;-74
2024/01/30 08:36:29;;;;;;;17.80;11.70;;;;;;;-0.16;72.17;101892.23;106410;1254;60473;-74
2024/01/30 08:38:55;;;;;;;15.30;11.10;;;;;;;-0.02;71.45;101885.38;106525;1256;73687;-75
2024/01/30 08:41:29;;;;;;;18.00;12.00;;;;;;;0.06;70.97;101879.55;109036;1254;70259;-74
2024/01/30 08:43:57;;;;;;;20.80;12.30;;;;;;;0.14;71.02;101878.42;108539;1254;71075;-73
2024/01/30 08:46:24;;;;;;;16.90;11.50;;;;;;;0.24;70.58;101878.63;106186;1257;60469;-74
2024/01/30 08:48:51;;;;;;;16.30;11.30;;;;;;;0.36;70.24;101872.84;106038;1256;60724;-74
2024/01/30 08:51:18;;;;;;;17.80;11.20;;;;;;;0.47;69.63;101867.05;105951;1257;73528;-75
2024/01/30 08:53:44;;;;;;;14.90;10.60;;;;;;;0.57;69.21;101866.19;105912;1253;60553;-75
2024/01/30 08:56:11;;;;;;;17.30;11.80;;;;;;;0.66;68.64;101863.81;105904;1258;72747;-76
2024/01/30 08:58:39;;;;;;;17.70;12.40;;;;;;;0.72;68.71;101861.67;106062;1256;60437;-74
2024/01/30 09:01:05;;;;;;;17.10;11.60;;;;;;;0.78;67.89;101861.30;105964;1251;60441;-75
2024/01/30 09:03:32;;;;;;;17.00;11.90;;;;;;;0.83;67.84;101853.81;106030;1257;74218;-74
2024/01/30 09:05:59;;;;;;;15.00;11.30;;;;;;;0.90;67.99;101848.50;105903;1254;70173;-74
2024/01/30 09:08:26;;;;;;;21.60;11.70;;;;;;;1.00;67.44;101848.51;105960;1257;72770;-74
2024/01/30 09:10:52;;;;;;;15.40;10.90;;;;;;;1.10;67.13;101850.05;105879;1253;60441;-74
2024/01/30 09:13:19;;;;;;;15.90;10.80;;;;;;;1.22;67.33;101841.25;105860;1257;60361;-74
2024/01/30 09:15:46;;;;;;;14.60;10.20;;;;;;;1.41;67.02;101837.92;105843;1256;73875;-74
2024/01/30 09:18:12;;;;;;;14.20;10.20;;;;;;;1.65;66.30;101835.09;105990;1256;70385;-76
2024/01/30 09:20:39;;;;;;;12.30;8.90;;;;;;;1.90;65.47;101841.48;105998;1256;72419;-75
2024/01/30 09:23:06;;;;;;;14.30;9.50;;;;;;;2.17;64.48;101841.96;106027;1254;60421;-76
2024/01/30 09:25:33;;;;;;;12.40;9.60;;;;;;;2.45;63.47;101832.91;105972;1257;60441;-78
2024/01/30 09:28:01;;;;;;;14.30;10.70;;;;;;;2.73;62.74;101826.30;106458;1252;73800;-77
2024/01/30 09:30:28;;;;;;;14.90;10.60;;;;;;;3.11;62.53;101826.17;106732;1254;69536;-79
2024/01/30 09:32:56;;;;;;;14.00;10.40;;;;;;;3.53;60.53;101816.77;106778;1254;70075;-78
2024/01/30 09:35:25;;;;;;;14.10;9.40;;;;;;;3.90;59.27;101815.55;106589;1254;60674;-79
2024/01/30 09:37:53;;;;;;;14.40;10.90;;;;;;;4.21;58.02;101809.60;108066;1253;60448;-79
2024/01/30 09:40:20;;;;;;;11.30;9.20;;;;;;;4.55;57.28;101802.83;108706;1253;71592;-80
2024/01/30 09:42:50;;;;;;;12.50;10.20;;;;;;;4.75;56.81;101795.30;109029;1254;69299;-78
2024/01/30 09:45:19;;;;;;;11.80;9.50;;;;;;;4.98;56.70;101790.92;108685;1254;71214;-78
2024/01/30 09:47:46;;;;;;;11.30;9.40;;;;;;;5.34;55.77;101790.02;108265;1253;60433;-80
2024/01/30 09:50:14;;;;;;;11.50;8.80;;;;;;;5.83;54.90;101788.36;106390;1256;60495;-80
2024/01/30 09:52:41;;;;;;;13.10;10.00;;;;;;;6.36;53.71;101780.58;106377;1252;72649;-80
2024/01/30 09:55:09;;;;;;;11.00;9.20;;;;;;;6.86;52.53;101778.46;106131;1254;69146;-79
2024/01/30 09:57:36;;;;;;;11.90;9.00;;;;;;;7.21;51.54;101773.12;106236;1254;71921;-79
2024/01/30 10:00:08;;;;;;;12.70;9.10;;;;;;;7.54;51.06;101771.02;107990;1254;60533;-79
2024/01/30 10:02:41;;;;;;;11.90;10.00;;;;;;;7.96;49.85;101767.75;107733;1256;60511;-79
2024/01/30 10:05:08;;;;;;;14.10;11.00;;;;;;;8.17;49.08;101765.19;106038;1254;73777;-79
2024/01/30 10:07:35;;;;;;;12.70;9.90;;;;;;;8.36;49.55;101767.73;106256;1253;71626;-79
2024/01/30 10:10:02;;;;;;;17.40;13.10;;;;;;;8.67;48.16;101760.58;106230;1256;73098;-80
2024/01/30 10:12:29;;;;;;;16.30;11.70;;;;;;;8.85;47.68;101756.96;106175;1255;60458;-79
2024/01/30 10:14:57;;;;;;;13.20;11.00;;;;;;;9.08;47.70;101760.88;106584;1257;60464;-78
2024/01/30 10:17:25;;;;;;;11.20;9.80;;;;;;;9.31;46.90;101764.19;106909;1256;72906;-77
2024/01/30 10:20:00;;;;;;;11.60;9.50;;;;;;;9.43;45.84;101766.66;105909;1257;143289;-75
2024/01/30 10:24:24;;;;;;;10.90;9.70;;;;;;;9.29;45.49;101763.95;102509;1292;600133;-76
2024/01/30 10:26:55;;;;;;;11.30;9.10;;;;;;;9.23;45.85;101762.95;104903;1273;59245;-76
2024/01/30 10:29:23;;;;;;;11.00;9.70;;;;;;;9.23;45.35;101758.38;105033;1268;62210;-76
2024/01/30 10:32:01;;;;;;;13.30;10.00;;;;;;;9.34;45.50;101754.75;105883;1257;71359;-76
2024/01/30 10:34:28;;;;;;;10.10;8.80;;;;;;;9.53;45.20;101752.51;106208;1257;68855;-77
2024/01/30 10:37:17;;;;;;;10.20;8.90;;;;;;;9.79;44.56;101747.59;108449;1253;136485;-75
2024/01/30 10:39:47;;;;;;;10.20;9.10;;;;;;;9.99;44.28;101748.91;108252;1253;61140;-76
2024/01/30 10:42:18;;;;;;;14.30;9.70;;;;;;;10.10;43.89;101750.59;106077;1254;61128;-76
2024/01/30 10:45:12;;;;;;;12.00;9.20;;;;;;;10.22;43.74;101745.77;106083;1254;73187;-74
2024/01/30 10:47:43;;;;;;;10.20;8.70;;;;;;;10.51;44.06;101745.70;105864;1253;71481;-76
2024/01/30 10:50:11;;;;;;;10.60;9.40;;;;;;;10.75;42.31;101748.69;106138;1257;70550;-76
2024/01/30 10:52:39;;;;;;;11.00;9.20;;;;;;;10.65;42.49;101748.17;105767;1256;59701;-75
2024/01/30 10:55:07;;;;;;;10.20;8.50;;;;;;;10.65;42.92;101740.89;105804;1260;60137;-78
2024/01/30 10:57:37;;;;;;;11.30;9.00;;;;;;;10.81;42.83;101735.38;105738;1255;72226;-76
2024/01/30 11:00:10;;;;;;;10.00;8.80;;;;;;;11.18;43.00;101738.33;105946;1256;69285;-75
2024/01/30 11:02:42;;;;;;;11.00;9.00;;;;;;;11.64;41.98;101734.41;105847;1257;70828;-76
2024/01/30 11:05:09;;;;;;;10.60;9.20;;;;;;;11.85;41.42;101729.17;105951;1257;59734;-77
2024/01/30 11:07:41;;;;;;;10.00;8.50;;;;;;;12.01;40.98;101728.41;105700;1254;59730;-75